Absecon Heights, New Jersey
Current Conditions -  °F | °C
As of 11:54 AM on Friday 31 Oct 2014 (Local Time) from KACY Reporting Station
Clear Clear  
Wind Chill: 52°   Ceiling: Unl
Heat Index: 52°   Visibility: 10mi
Dew Point: 42°   Wind: 9mph
Humidity: 69%   Direction: 10°N
Pressure: 29.94"   Gusts: NA
Location:  39.4315°N, 74.5003°W
Report Text: KACY 311554Z 01008KT 10SM CLR 11/06 A2994 RMK AO2 SLP138 T01110056
Loading
Personal Weather Stations






























Interactive Weather Map
Tropical Storm Tracking
New forecast layout! Learn more

10-Day Weather Forecast

Advertisements
Track Severe Weather on mobile